createdAt,value
2019-05-29T00:01:35.727Z,10.76
2019-05-29T00:04:44.907Z,10.78
2019-05-29T00:07:53.941Z,10.74
2019-05-29T00:11:06.272Z,10.76
2019-05-29T00:14:27.372Z,10.80
2019-05-29T00:17:36.159Z,10.79
2019-05-29T00:20:48.402Z,10.77
2019-05-29T00:23:58.374Z,10.70
2019-05-29T00:27:05.826Z,10.79
2019-05-29T00:30:25.087Z,10.82
2019-05-29T00:33:42.262Z,10.90
2019-05-29T00:36:51.331Z,10.94
2019-05-29T00:40:10.815Z,11.00
2019-05-29T00:43:22.549Z,10.93
2019-05-29T00:46:39.399Z,10.78
2019-05-29T00:49:58.390Z,10.68
2019-05-29T00:53:04.967Z,10.61
2019-05-29T00:56:10.874Z,10.55
2019-05-29T00:59:25.643Z,10.59
2019-05-29T01:02:32.669Z,10.55
2019-05-29T01:05:51.893Z,10.40
2019-05-29T01:09:01.333Z,10.31
2019-05-29T01:12:12.851Z,10.32
2019-05-29T01:15:19.581Z,10.13
2019-05-29T01:18:25.697Z,9.97
2019-05-29T01:21:34.491Z,9.90
2019-05-29T01:25:16.545Z,9.90
2019-05-29T01:28:27.382Z,9.72
2019-05-29T01:31:35.179Z,9.79
2019-05-29T01:34:45.122Z,9.71
2019-05-29T01:37:53.992Z,9.71
2019-05-29T01:41:08.306Z,9.83
2019-05-29T01:44:21.408Z,9.90
2019-05-29T01:47:28.226Z,10.02
2019-05-29T01:50:34.894Z,9.99
2019-05-29T01:53:43.934Z,9.96
2019-05-29T01:56:56.439Z,10.08
2019-05-29T02:00:04.355Z,9.95
2019-05-29T02:03:13.271Z,10.04
2019-05-29T02:06:21.925Z,9.97
2019-05-29T02:09:29.843Z,9.88
2019-05-29T02:12:44.024Z,9.97
2019-05-29T02:16:01.634Z,9.97
2019-05-29T02:19:15.746Z,9.88
2019-05-29T02:22:23.044Z,9.92
2019-05-29T02:25:32.489Z,10.12
2019-05-29T02:28:38.683Z,10.23
2019-05-29T02:31:48.438Z,10.22
2019-05-29T02:34:54.290Z,10.29
2019-05-29T02:38:05.060Z,10.30
2019-05-29T02:41:13.581Z,10.31
2019-05-29T02:44:23.500Z,10.25
2019-05-29T02:47:30.275Z,10.21
2019-05-29T02:50:35.529Z,10.05
2019-05-29T02:53:40.635Z,9.95
2019-05-29T02:56:45.791Z,9.94
2019-05-29T02:59:50.899Z,9.89
2019-05-29T03:02:56.064Z,9.85
2019-05-29T03:06:01.189Z,9.71
2019-05-29T03:09:07.120Z,9.54
2019-05-29T03:12:12.253Z,9.53
2019-05-29T03:15:18.499Z,9.65
2019-05-29T03:18:24.017Z,9.63
2019-05-29T03:21:32.399Z,9.61
2019-05-29T03:24:37.595Z,9.36
2019-05-29T03:27:42.775Z,9.39
2019-05-29T03:30:48.051Z,9.27
2019-05-29T03:33:53.257Z,9.27
2019-05-29T03:36:58.406Z,9.27
2019-05-29T03:40:03.545Z,9.30
2019-05-29T03:43:08.750Z,9.22
2019-05-29T03:46:30.150Z,9.23
2019-05-29T03:49:20.793Z,9.33
2019-05-29T03:52:26.314Z,9.39
2019-05-29T03:55:33.694Z,9.31
2019-05-29T03:58:38.940Z,9.34
2019-05-29T04:01:44.147Z,9.41
2019-05-29T04:04:49.345Z,9.61
2019-05-29T04:07:54.678Z,9.72
2019-05-29T04:11:00.165Z,9.80
2019-05-29T04:14:05.465Z,10.16
2019-05-29T04:17:12.945Z,10.18
2019-05-29T04:20:18.249Z,10.31
2019-05-29T04:23:24.826Z,10.46
2019-05-29T04:26:32.681Z,10.74
2019-05-29T04:29:39.742Z,10.93
2019-05-29T04:32:44.985Z,10.99
2019-05-29T04:35:50.156Z,11.34
2019-05-29T04:38:55.361Z,11.00
2019-05-29T04:42:00.555Z,11.14
2019-05-29T04:45:06.388Z,11.15
2019-05-29T04:48:11.492Z,11.32
2019-05-29T04:51:16.677Z,11.34
2019-05-29T04:54:21.841Z,11.45
2019-05-29T04:57:27.122Z,11.84
2019-05-29T05:00:33.078Z,11.86
2019-05-29T05:03:39.423Z,11.80
2019-05-29T05:06:44.713Z,11.54
2019-05-29T05:09:49.868Z,11.59
2019-05-29T05:12:55.138Z,11.75
2019-05-29T05:16:02.469Z,11.69
2019-05-29T05:19:07.705Z,11.80
2019-05-29T05:22:13.099Z,11.70
2019-05-29T05:25:18.374Z,11.78
2019-05-29T05:28:23.529Z,11.90
2019-05-29T05:31:28.859Z,11.81
2019-05-29T05:34:34.713Z,12.13
2019-05-29T05:37:41.033Z,12.32
2019-05-29T05:40:46.351Z,12.28
2019-05-29T05:43:51.501Z,11.92
2019-05-29T05:46:56.637Z,11.85
2019-05-29T05:50:02.187Z,11.89
2019-05-29T05:53:07.485Z,11.62
2019-05-29T05:56:12.752Z,11.75
2019-05-29T05:59:17.942Z,11.75
2019-05-29T06:02:23.428Z,12.04
2019-05-29T06:05:28.579Z,12.42
2019-05-29T06:08:34.054Z,12.17
2019-05-29T06:11:40.387Z,12.16
2019-05-29T06:14:45.589Z,12.46
2019-05-29T06:18:10.267Z,12.37
2019-05-29T06:20:57.634Z,12.53
2019-05-29T06:24:02.822Z,12.62
2019-05-29T06:27:07.966Z,12.60
2019-05-29T06:30:13.424Z,12.62
2019-05-29T06:33:18.542Z,12.60
2019-05-29T06:36:24.852Z,12.71
2019-05-29T06:39:30.021Z,12.43
2019-05-29T06:42:35.702Z,12.49
2019-05-29T06:45:42.046Z,12.53
2019-05-29T06:48:58.557Z,12.55
2019-05-29T06:51:54.160Z,12.31
2019-05-29T06:54:59.270Z,12.20
2019-05-29T06:58:04.397Z,12.47
2019-05-29T07:01:09.569Z,12.56
2019-05-29T07:04:14.730Z,12.77
2019-05-29T07:07:19.842Z,13.02
2019-05-29T07:10:25.180Z,12.98
2019-05-29T07:13:34.517Z,13.23
2019-05-29T07:16:45.357Z,13.52
2019-05-29T07:19:53.989Z,14.06
2019-05-29T07:22:51.210Z,14.15
2019-05-29T07:25:56.376Z,13.89
2019-05-29T07:29:07.926Z,13.38
2019-05-29T07:32:08.450Z,13.12
2019-05-29T07:35:14.721Z,13.39
2019-05-29T07:38:19.972Z,13.20
2019-05-29T07:41:25.136Z,12.83
2019-05-29T07:44:30.288Z,12.81
2019-05-29T07:47:35.506Z,12.70
2019-05-29T07:50:40.777Z,12.65
2019-05-29T07:53:46.454Z,12.87
2019-05-29T07:56:51.762Z,12.78
2019-05-29T07:59:56.968Z,12.85
2019-05-29T08:03:02.166Z,12.99
2019-05-29T08:06:07.363Z,12.94
2019-05-29T08:09:12.564Z,13.38
2019-05-29T08:12:17.837Z,13.38
2019-05-29T08:15:22.951Z,13.67
2019-05-29T08:18:28.191Z,14.17
2019-05-29T08:21:33.508Z,14.10
2019-05-29T08:24:38.797Z,14.47
2019-05-29T08:27:44.772Z,14.67
2019-05-29T08:30:56.056Z,14.21
2019-05-29T08:33:58.175Z,14.41
2019-05-29T08:37:07.169Z,14.02
2019-05-29T08:40:11.551Z,13.99
2019-05-29T08:43:16.695Z,13.95
2019-05-29T08:46:21.824Z,13.65
2019-05-29T08:49:27.020Z,13.42
2019-05-29T08:52:32.201Z,13.15
2019-05-29T08:55:37.369Z,12.89
2019-05-29T08:58:42.925Z,12.86
2019-05-29T09:01:50.442Z,12.95
2019-05-29T09:04:55.089Z,13.22
2019-05-29T09:08:00.286Z,13.30
2019-05-29T09:11:05.573Z,13.95
2019-05-29T09:14:10.865Z,13.90
2019-05-29T09:17:16.922Z,14.16
2019-05-29T09:20:37.222Z,14.31
2019-05-29T09:23:29.311Z,14.25
2019-05-29T09:26:34.574Z,14.26
2019-05-29T09:29:39.732Z,14.82
2019-05-29T09:32:51.638Z,15.78
2019-05-29T09:35:51.865Z,15.82
2019-05-29T09:38:57.061Z,16.91
2019-05-29T09:42:02.275Z,16.95
2019-05-29T09:45:07.877Z,17.07
2019-05-29T09:48:13.067Z,16.82
2019-05-29T09:51:21.640Z,16.26
2019-05-29T09:54:25.513Z,16.14
2019-05-29T09:57:30.840Z,16.71
2019-05-29T10:00:36.091Z,17.02
2019-05-29T10:03:41.439Z,18.08
2019-05-29T10:06:46.640Z,17.56
2019-05-29T10:09:51.824Z,17.18
2019-05-29T10:12:58.120Z,16.68
2019-05-29T10:16:04.583Z,16.71
2019-05-29T10:19:09.808Z,17.66
2019-05-29T10:22:15.043Z,17.53
2019-05-29T10:25:20.423Z,17.17
2019-05-29T10:28:25.616Z,17.17
2019-05-29T10:31:30.838Z,17.22
2019-05-29T10:34:36.099Z,17.04
2019-05-29T10:37:42.583Z,17.38
2019-05-29T10:41:00.514Z,16.97
2019-05-29T10:43:55.006Z,17.03
2019-05-29T10:47:00.206Z,17.39
2019-05-29T10:50:06.144Z,17.33
2019-05-29T10:53:11.427Z,17.35
2019-05-29T10:56:20.803Z,17.86
2019-05-29T10:59:23.490Z,17.94
2019-05-29T11:02:28.681Z,17.48
2019-05-29T11:05:33.827Z,17.15
2019-05-29T11:08:39.026Z,17.11
2019-05-29T11:11:44.197Z,17.29
2019-05-29T11:14:50.563Z,16.99
2019-05-29T11:17:57.295Z,16.79
2019-05-29T11:21:02.659Z,17.04
2019-05-29T11:24:07.844Z,16.79
2019-05-29T11:27:12.954Z,16.11
2019-05-29T11:30:18.225Z,16.26
2019-05-29T11:33:23.469Z,16.63
2019-05-29T11:36:28.711Z,17.23
2019-05-29T11:39:33.983Z,17.60
2019-05-29T11:42:39.138Z,17.81
2019-05-29T11:45:44.279Z,18.02
2019-05-29T11:48:49.453Z,17.68
2019-05-29T11:52:17.179Z,17.36
2019-05-29T11:55:04.511Z,18.19
2019-05-29T11:58:09.837Z,18.38
2019-05-29T12:01:15.943Z,19.36
2019-05-29T12:04:26.370Z,19.91
2019-05-29T12:07:28.075Z,19.71
2019-05-29T12:10:34.455Z,19.98
2019-05-29T12:13:39.625Z,19.04
2019-05-29T12:16:44.825Z,18.85
2019-05-29T12:19:50.048Z,19.59
2019-05-29T12:23:20.798Z,20.32
2019-05-29T12:26:19.685Z,19.42
2019-05-29T12:29:11.906Z,20.46
2019-05-29T12:32:16.019Z,19.65
2019-05-29T12:35:21.269Z,19.38
2019-05-29T12:38:26.548Z,19.01
2019-05-29T12:41:31.675Z,18.77
2019-05-29T12:44:36.814Z,18.77
2019-05-29T12:47:42.157Z,18.77
2019-05-29T12:50:47.403Z,18.23
2019-05-29T12:53:53.850Z,18.05
2019-05-29T12:56:59.992Z,17.77
2019-05-29T13:00:06.528Z,17.66
2019-05-29T13:03:11.890Z,17.90
2019-05-29T13:06:17.191Z,17.73
2019-05-29T13:09:22.474Z,17.52
2019-05-29T13:12:27.647Z,17.73
2019-05-29T13:15:32.867Z,18.37
2019-05-29T13:18:37.920Z,17.85
2019-05-29T13:21:43.102Z,18.06
2019-05-29T13:24:48.365Z,17.70
2019-05-29T13:27:53.608Z,17.36
2019-05-29T13:30:59.783Z,18.39
2019-05-29T13:34:06.979Z,19.25
2019-05-29T13:37:12.064Z,19.10
2019-05-29T13:40:17.665Z,18.87
2019-05-29T13:43:23.860Z,18.87
2019-05-29T13:46:28.952Z,18.53
2019-05-29T13:49:34.254Z,19.12
2019-05-29T13:52:39.442Z,19.07
2019-05-29T13:55:44.699Z,18.77
2019-05-29T13:58:49.864Z,18.76
2019-05-29T14:01:55.089Z,19.74
2019-05-29T14:05:00.526Z,20.04
2019-05-29T14:08:07.102Z,19.14
2019-05-29T14:11:12.454Z,19.04
2019-05-29T14:14:17.673Z,19.79
2019-05-29T14:17:22.793Z,18.71
2019-05-29T14:20:28.120Z,18.77
2019-05-29T14:23:33.792Z,18.82
2019-05-29T14:26:38.972Z,18.43
2019-05-29T14:29:44.130Z,18.49
2019-05-29T14:32:49.344Z,18.01
2019-05-29T14:35:54.505Z,18.00
2019-05-29T14:38:59.683Z,18.28
2019-05-29T14:42:05.997Z,18.75
2019-05-29T14:45:12.823Z,19.18
2019-05-29T14:48:18.315Z,19.32
2019-05-29T14:51:23.502Z,19.68
2019-05-29T14:54:41.206Z,19.88
2019-05-29T14:57:35.570Z,19.69
2019-05-29T15:00:40.735Z,19.67
2019-05-29T15:03:45.956Z,19.83
2019-05-29T15:06:51.206Z,19.06
2019-05-29T15:09:56.394Z,19.19
2019-05-29T15:13:01.781Z,20.37
2019-05-29T15:16:09.116Z,19.74
2019-05-29T15:19:15.223Z,19.70
2019-05-29T15:22:20.591Z,18.87
2019-05-29T15:25:25.762Z,18.30
2019-05-29T15:28:30.884Z,17.97
2019-05-29T15:31:36.068Z,17.68
2019-05-29T15:34:41.454Z,17.85
2019-05-29T15:37:46.696Z,17.77
2019-05-29T15:40:51.876Z,17.61
2019-05-29T15:43:57.157Z,18.17
2019-05-29T15:47:02.251Z,18.10
2019-05-29T15:50:09.002Z,18.66
2019-05-29T15:53:15.482Z,18.34
2019-05-29T15:56:27.493Z,17.97
2019-05-29T15:59:27.531Z,17.72
2019-05-29T16:02:32.749Z,17.74
2019-05-29T16:05:37.967Z,17.74
2019-05-29T16:08:43.178Z,17.62
2019-05-29T16:11:48.502Z,17.83
2019-05-29T16:14:53.699Z,18.64
2019-05-29T16:17:58.873Z,18.78
2019-05-29T16:21:04.066Z,19.33
2019-05-29T16:24:10.576Z,19.52
2019-05-29T16:27:16.107Z,18.85
2019-05-29T16:30:21.862Z,18.47
2019-05-29T16:33:27.206Z,18.09
2019-05-29T16:36:32.352Z,18.14
2019-05-29T16:39:37.716Z,17.77
2019-05-29T16:42:42.927Z,17.46
2019-05-29T16:45:48.409Z,17.90
2019-05-29T16:48:53.563Z,17.93
2019-05-29T16:51:58.814Z,18.11
2019-05-29T16:55:04.153Z,17.74
2019-05-29T16:58:10.374Z,17.74
2019-05-29T17:01:15.591Z,18.01
2019-05-29T17:04:21.724Z,17.95
2019-05-29T17:07:27.891Z,17.71
2019-05-29T17:10:36.911Z,18.33
2019-05-29T17:13:42.073Z,17.58
2019-05-29T17:16:47.258Z,17.34
2019-05-29T17:19:52.555Z,16.65
2019-05-29T17:22:57.870Z,16.65
2019-05-29T17:26:10.806Z,16.57
2019-05-29T17:29:09.974Z,16.54
2019-05-29T17:32:15.208Z,16.19
2019-05-29T17:35:21.233Z,16.11
2019-05-29T17:38:26.586Z,16.01
2019-05-29T17:41:31.885Z,17.23
2019-05-29T17:44:37.161Z,17.20
2019-05-29T17:47:42.318Z,16.93
2019-05-29T17:50:47.802Z,16.53
2019-05-29T17:53:52.980Z,16.27
2019-05-29T17:56:59.004Z,16.23
2019-05-29T18:00:05.273Z,16.09
2019-05-29T18:03:12.192Z,15.78
2019-05-29T18:06:18.318Z,15.54
2019-05-29T18:09:27.005Z,15.36
2019-05-29T18:12:30.816Z,15.01
2019-05-29T18:15:36.180Z,14.79
2019-05-29T18:18:41.578Z,14.65
2019-05-29T18:21:46.884Z,14.60
2019-05-29T18:24:52.327Z,14.50
2019-05-29T18:27:57.832Z,14.34
2019-05-29T18:31:03.051Z,14.17
2019-05-29T18:34:08.233Z,14.07
2019-05-29T18:37:13.431Z,13.97
2019-05-29T18:40:20.456Z,13.74
2019-05-29T18:43:26.671Z,13.51
2019-05-29T18:46:37.443Z,13.44
2019-05-29T18:49:39.543Z,13.31
2019-05-29T18:52:44.776Z,13.25
2019-05-29T18:55:50.011Z,13.15
2019-05-29T18:58:55.428Z,12.95
2019-05-29T19:02:03.354Z,12.73
2019-05-29T19:05:09.324Z,12.71
2019-05-29T19:08:14.674Z,12.53
2019-05-29T19:11:19.977Z,12.37
2019-05-29T19:14:25.870Z,12.26
2019-05-29T19:17:32.237Z,12.06
2019-05-29T19:20:37.681Z,11.83
2019-05-29T19:23:42.767Z,11.82
2019-05-29T19:26:47.977Z,11.63
2019-05-29T19:29:53.173Z,11.43
2019-05-29T19:32:58.456Z,11.50
2019-05-29T19:36:03.767Z,11.33
2019-05-29T19:39:09.258Z,11.14
2019-05-29T19:42:15.262Z,11.02
2019-05-29T19:45:20.927Z,10.89
2019-05-29T19:48:26.874Z,10.80
2019-05-29T19:51:33.473Z,10.68
2019-05-29T19:54:38.929Z,10.58
2019-05-29T19:57:55.677Z,10.58
2019-05-29T20:00:51.275Z,10.47
2019-05-29T20:03:57.568Z,10.36
2019-05-29T20:07:03.006Z,10.37
2019-05-29T20:10:09.779Z,10.43
2019-05-29T20:13:15.083Z,10.28
2019-05-29T20:16:20.257Z,10.16
2019-05-29T20:19:25.830Z,10.14
2019-05-29T20:22:31.030Z,9.93
2019-05-29T20:25:37.023Z,10.00
2019-05-29T20:28:42.588Z,10.09
2019-05-29T20:31:47.742Z,10.12
2019-05-29T20:34:55.768Z,10.02
2019-05-29T20:38:00.952Z,9.84
2019-05-29T20:41:06.161Z,9.85
2019-05-29T20:44:12.462Z,9.73
2019-05-29T20:47:17.655Z,9.61
2019-05-29T20:50:23.133Z,9.53
2019-05-29T20:53:28.332Z,9.50
2019-05-29T20:56:33.979Z,9.39
2019-05-29T20:59:40.192Z,9.22
2019-05-29T21:02:45.463Z,9.20
2019-05-29T21:05:50.718Z,9.22
2019-05-29T21:08:56.399Z,9.33
2019-05-29T21:12:01.763Z,9.11
2019-05-29T21:15:09.237Z,8.93
2019-05-29T21:18:14.458Z,8.87
2019-05-29T21:21:20.923Z,8.73
2019-05-29T21:24:26.280Z,8.63
2019-05-29T21:27:31.532Z,8.58
2019-05-29T21:30:37.406Z,8.61
2019-05-29T21:33:45.865Z,8.60
2019-05-29T21:36:49.641Z,8.39
2019-05-29T21:39:54.793Z,8.44
2019-05-29T21:43:00.449Z,8.44
2019-05-29T21:46:05.697Z,8.32
2019-05-29T21:49:11.037Z,8.20
2019-05-29T21:52:19.093Z,8.34
2019-05-29T21:55:24.306Z,8.45
2019-05-29T21:58:29.498Z,8.44
2019-05-29T22:01:35.730Z,8.37
2019-05-29T22:04:42.277Z,8.29
2019-05-29T22:07:48.599Z,8.05
2019-05-29T22:10:55.581Z,7.98
2019-05-29T22:14:00.932Z,7.92
2019-05-29T22:17:07.388Z,7.84
2019-05-29T22:20:13.405Z,7.73
2019-05-29T22:23:18.606Z,7.67
2019-05-29T22:26:23.762Z,7.70
2019-05-29T22:29:28.921Z,7.56
2019-05-29T22:32:34.097Z,7.52
2019-05-29T22:35:41.384Z,7.58
2019-05-29T22:38:46.656Z,7.52
2019-05-29T22:41:51.914Z,7.50
2019-05-29T22:44:57.743Z,7.49
2019-05-29T22:48:02.888Z,7.39
2019-05-29T22:51:08.175Z,7.42
2019-05-29T22:54:13.322Z,7.23
2019-05-29T22:57:18.538Z,7.10
2019-05-29T23:00:23.820Z,7.29
2019-05-29T23:03:29.067Z,7.47
2019-05-29T23:06:34.258Z,7.32
2019-05-29T23:09:39.491Z,7.26
2019-05-29T23:12:45.711Z,7.15
2019-05-29T23:15:52.346Z,7.17
2019-05-29T23:18:58.554Z,7.18
2019-05-29T23:22:04.941Z,7.07
2019-05-29T23:25:10.168Z,7.16
2019-05-29T23:28:15.293Z,7.16
2019-05-29T23:31:21.779Z,7.05
2019-05-29T23:34:26.937Z,7.10
2019-05-29T23:37:32.074Z,7.12
2019-05-29T23:40:37.276Z,7.10
2019-05-29T23:43:42.460Z,6.88
2019-05-29T23:46:47.599Z,6.75
2019-05-29T23:49:53.511Z,6.66
2019-05-29T23:52:59.663Z,6.66
2019-05-29T23:56:04.896Z,6.83
2019-05-29T23:59:09.999Z,6.85
